sensor_id;sensor_type;location;lat;lon;timestamp;pressure;altitude;pressure_sealevel;temperature;humidity
6464;BME280;3265;42.694;23.282;2023-06-22T00:01:16;71931.38;;;-143.21;79.74
6464;BME280;3265;42.694;23.282;2023-06-22T00:03:43;71931.38;;;-143.21;79.66
6464;BME280;3265;42.694;23.282;2023-06-22T00:06:11;71927.44;;;-143.21;79.53
6464;BME280;3265;42.694;23.282;2023-06-22T00:08:38;71919.50;;;-143.21;79.63
6464;BME280;3265;42.694;23.282;2023-06-22T00:11:04;71923.47;;;-143.21;79.84
6464;BME280;3265;42.694;23.282;2023-06-22T00:13:31;71925.44;;;-143.21;80.00
6464;BME280;3265;42.694;23.282;2023-06-22T00:15:58;71927.44;;;-143.21;79.58
6464;BME280;3265;42.694;23.282;2023-06-22T00:18:25;71939.31;;;-143.21;78.54
6464;BME280;3265;42.694;23.282;2023-06-22T00:20:54;71929.41;;;-143.21;78.73
6464;BME280;3265;42.694;23.282;2023-06-22T00:23:25;71933.38;;;-143.21;79.02
6464;BME280;3265;42.694;23.282;2023-06-22T00:25:52;71929.41;;;-143.21;79.26
6464;BME280;3265;42.694;23.282;2023-06-22T00:28:19;71917.50;;;-143.21;78.90
6464;BME280;3265;42.694;23.282;2023-06-22T00:30:46;71923.47;;;-143.21;77.29
6464;BME280;3265;42.694;23.282;2023-06-22T00:33:13;71919.50;;;-143.21;76.61
6464;BME280;3265;42.694;23.282;2023-06-22T00:35:40;71927.44;;;-143.21;77.40
6464;BME280;3265;42.694;23.282;2023-06-22T00:38:07;71923.47;;;-143.21;77.70
6464;BME280;3265;42.694;23.282;2023-06-22T00:40:36;71923.47;;;-143.21;77.43
6464;BME280;3265;42.694;23.282;2023-06-22T00:43:03;71935.34;;;-143.21;76.78
6464;BME280;3265;42.694;23.282;2023-06-22T00:45:30;71937.34;;;-143.21;76.14
6464;BME280;3265;42.694;23.282;2023-06-22T00:47:57;71931.38;;;-143.21;75.90
6464;BME280;3265;42.694;23.282;2023-06-22T00:50:26;71931.38;;;-143.21;75.49
6464;BME280;3265;42.694;23.282;2023-06-22T00:52:56;71929.41;;;-143.21;74.93
6464;BME280;3265;42.694;23.282;2023-06-22T00:55:24;71941.31;;;-143.21;75.70
6464;BME280;3265;42.694;23.282;2023-06-22T00:57:53;71947.25;;;-143.21;76.46
6464;BME280;3265;42.694;23.282;2023-06-22T01:00:22;71949.25;;;-143.21;76.29
6464;BME280;3265;42.694;23.282;2023-06-22T01:02:50;71949.25;;;-143.21;76.59
6464;BME280;3265;42.694;23.282;2023-06-22T01:05:18;71965.09;;;-143.21;77.22
6464;BME280;3265;42.694;23.282;2023-06-22T01:07:55;71957.16;;;-143.21;77.17
6464;BME280;3265;42.694;23.282;2023-06-22T01:10:28;71961.13;;;-143.21;77.40
6464;BME280;3265;42.694;23.282;2023-06-22T01:13:02;71961.13;;;-143.21;77.81
6464;BME280;3265;42.694;23.282;2023-06-22T01:15:33;71967.09;;;-143.21;77.77
6464;BME280;3265;42.694;23.282;2023-06-22T01:18:04;71967.09;;;-143.21;77.87
6464;BME280;3265;42.694;23.282;2023-06-22T01:20:32;71957.16;;;-143.21;77.67
6464;BME280;3265;42.694;23.282;2023-06-22T01:23:09;71969.06;;;-143.21;76.03
6464;BME280;3265;42.694;23.282;2023-06-22T01:25:47;71977.00;;;-143.21;76.44
6464;BME280;3265;42.694;23.282;2023-06-22T01:28:24;71978.97;;;-143.21;75.58
6464;BME280;3265;42.694;23.282;2023-06-22T01:30:53;71992.88;;;-143.21;74.62
6464;BME280;3265;42.694;23.282;2023-06-22T01:33:30;71990.88;;;-143.21;74.13
6464;BME280;3265;42.694;23.282;2023-06-22T01:35:58;71998.81;;;-143.21;75.27
6464;BME280;3265;42.694;23.282;2023-06-22T01:38:28;72004.75;;;-143.21;76.29
6464;BME280;3265;42.694;23.282;2023-06-22T01:40:57;72006.75;;;-143.21;76.66
6464;BME280;3265;42.694;23.282;2023-06-22T01:43:25;72008.72;;;-143.21;76.46
6464;BME280;3265;42.694;23.282;2023-06-22T01:45:55;72002.78;;;-143.21;76.99
6464;BME280;3265;42.694;23.282;2023-06-22T01:48:22;72004.75;;;-143.21;77.41
6464;BME280;3265;42.694;23.282;2023-06-22T01:50:51;72004.75;;;-143.21;77.40
6464;BME280;3265;42.694;23.282;2023-06-22T01:53:18;72014.69;;;-143.21;77.94
6464;BME280;3265;42.694;23.282;2023-06-22T01:55:46;72020.63;;;-143.21;77.84
6464;BME280;3265;42.694;23.282;2023-06-22T01:58:13;72010.72;;;-143.21;78.07
6464;BME280;3265;42.694;23.282;2023-06-22T02:00:44;72026.56;;;-143.21;77.48
6464;BME280;3265;42.694;23.282;2023-06-22T02:03:19;72024.59;;;-143.21;76.77
6464;BME280;3265;42.694;23.282;2023-06-22T02:05:51;72032.53;;;-143.21;76.82
6464;BME280;3265;42.694;23.282;2023-06-22T02:08:21;72038.47;;;-143.21;77.58
6464;BME280;3265;42.694;23.282;2023-06-22T02:10:50;72036.50;;;-143.21;77.74
6464;BME280;3265;42.694;23.282;2023-06-22T02:13:19;72040.44;;;-143.21;78.06
6464;BME280;3265;42.694;23.282;2023-06-22T02:15:47;72022.59;;;-143.21;78.45
6464;BME280;3265;42.694;23.282;2023-06-22T02:18:15;72032.53;;;-143.21;78.56
6464;BME280;3265;42.694;23.282;2023-06-22T02:20:42;72046.41;;;-143.21;78.99
6464;BME280;3265;42.694;23.282;2023-06-22T02:23:09;72052.34;;;-143.21;79.27
6464;BME280;3265;42.694;23.282;2023-06-22T02:25:36;72034.50;;;-143.21;78.71
6464;BME280;3265;42.694;23.282;2023-06-22T02:28:04;72030.53;;;-143.21;78.86
6464;BME280;3265;42.694;23.282;2023-06-22T02:30:32;72044.41;;;-143.21;79.28
6464;BME280;3265;42.694;23.282;2023-06-22T02:32:59;72042.44;;;-143.21;79.45
6464;BME280;3265;42.694;23.282;2023-06-22T02:35:28;72038.47;;;-143.21;79.23
6464;BME280;3265;42.694;23.282;2023-06-22T02:37:56;72040.44;;;-143.21;79.44
6464;BME280;3265;42.694;23.282;2023-06-22T02:40:23;72044.41;;;-143.21;79.54
6464;BME280;3265;42.694;23.282;2023-06-22T02:42:50;72054.34;;;-143.21;80.37
6464;BME280;3265;42.694;23.282;2023-06-22T02:45:17;72048.38;;;-143.21;80.62
6464;BME280;3265;42.694;23.282;2023-06-22T02:47:44;72052.34;;;-143.21;80.36
6464;BME280;3265;42.694;23.282;2023-06-22T02:50:13;72058.31;;;-143.21;80.39
6464;BME280;3265;42.694;23.282;2023-06-22T02:52:41;72062.25;;;-143.21;80.21
6464;BME280;3265;42.694;23.282;2023-06-22T02:55:08;72060.28;;;-143.21;80.37
6464;BME280;3265;42.694;23.282;2023-06-22T02:57:36;72068.22;;;-143.21;81.07
6464;BME280;3265;42.694;23.282;2023-06-22T03:00:10;72076.16;;;-143.21;81.74
6464;BME280;3265;42.694;23.282;2023-06-22T03:02:41;72078.13;;;-143.21;81.71
6464;BME280;3265;42.694;23.282;2023-06-22T03:05:08;72068.22;;;-143.21;81.74
6464;BME280;3265;42.694;23.282;2023-06-22T03:07:41;72056.31;;;-143.21;81.61
6464;BME280;3265;42.694;23.282;2023-06-22T03:10:09;72062.25;;;-143.21;81.34
6464;BME280;3265;42.694;23.282;2023-06-22T03:12:36;72054.34;;;-143.21;81.16
6464;BME280;3265;42.694;23.282;2023-06-22T03:15:04;72058.31;;;-143.21;80.77
6464;BME280;3265;42.694;23.282;2023-06-22T03:17:31;72056.31;;;-143.21;80.52
6464;BME280;3265;42.694;23.282;2023-06-22T03:19:58;72064.25;;;-143.21;80.58
6464;BME280;3265;42.694;23.282;2023-06-22T03:22:24;72064.25;;;-143.21;80.21
6464;BME280;3265;42.694;23.282;2023-06-22T03:24:53;72066.22;;;-143.21;79.78
6464;BME280;3265;42.694;23.282;2023-06-22T03:27:19;72064.25;;;-143.21;79.84
6464;BME280;3265;42.694;23.282;2023-06-22T03:29:47;72064.25;;;-143.21;79.70
6464;BME280;3265;42.694;23.282;2023-06-22T03:32:16;72062.25;;;-143.21;79.49
6464;BME280;3265;42.694;23.282;2023-06-22T03:34:43;72074.16;;;-143.21;79.61
6464;BME280;3265;42.694;23.282;2023-06-22T03:37:12;72072.19;;;-143.21;79.68
6464;BME280;3265;42.694;23.282;2023-06-22T03:39:39;72072.19;;;-143.21;79.34
6464;BME280;3265;42.694;23.282;2023-06-22T03:42:07;72078.13;;;-143.21;78.81
6464;BME280;3265;42.694;23.282;2023-06-22T03:44:34;72078.13;;;-143.21;78.51
6464;BME280;3265;42.694;23.282;2023-06-22T03:47:02;72076.16;;;-143.21;78.68
6464;BME280;3265;42.694;23.282;2023-06-22T03:49:31;72080.13;;;-143.21;79.33
6464;BME280;3265;42.694;23.282;2023-06-22T03:51:59;72084.06;;;-143.21;79.30
6464;BME280;3265;42.694;23.282;2023-06-22T03:54:27;72092.00;;;-143.21;79.18
6464;BME280;3265;42.694;23.282;2023-06-22T03:56:54;72074.16;;;-143.21;78.92
6464;BME280;3265;42.694;23.282;2023-06-22T03:59:22;72072.19;;;-143.21;78.79
6464;BME280;3265;42.694;23.282;2023-06-22T04:01:49;72076.16;;;-143.21;78.75
6464;BME280;3265;42.694;23.282;2023-06-22T04:04:17;72082.09;;;-143.21;78.37
6464;BME280;3265;42.694;23.282;2023-06-22T04:06:44;72088.03;;;-143.21;78.39
6464;BME280;3265;42.694;23.282;2023-06-22T04:09:10;72086.06;;;-143.21;79.33
6464;BME280;3265;42.694;23.282;2023-06-22T04:11:37;72076.16;;;-143.21;80.01
6464;BME280;3265;42.694;23.282;2023-06-22T04:14:04;72078.13;;;-143.21;80.03
6464;BME280;3265;42.694;23.282;2023-06-22T04:16:32;72070.19;;;-143.21;80.50
6464;BME280;3265;42.694;23.282;2023-06-22T04:18:59;72068.22;;;-143.21;80.13
6464;BME280;3265;42.694;23.282;2023-06-22T04:21:26;72058.31;;;-143.21;79.84
6464;BME280;3265;42.694;23.282;2023-06-22T04:23:53;72042.44;;;-143.21;79.60
6464;BME280;3265;42.694;23.282;2023-06-22T04:26:23;72046.41;;;-143.21;79.79
6464;BME280;3265;42.694;23.282;2023-06-22T04:28:52;72050.38;;;-143.21;80.10
6464;BME280;3265;42.694;23.282;2023-06-22T04:31:21;72036.50;;;-143.21;79.76
6464;BME280;3265;42.694;23.282;2023-06-22T04:34:00;72044.41;;;-143.21;79.32
6464;BME280;3265;42.694;23.282;2023-06-22T04:36:32;72036.50;;;-143.21;78.76
6464;BME280;3265;42.694;23.282;2023-06-22T04:39:04;72022.59;;;-143.21;78.66
6464;BME280;3265;42.694;23.282;2023-06-22T04:41:31;72020.63;;;-143.21;78.64
6464;BME280;3265;42.694;23.282;2023-06-22T04:44:08;72022.59;;;-143.21;78.68
6464;BME280;3265;42.694;23.282;2023-06-22T04:46:35;72028.56;;;-143.21;78.54
6464;BME280;3265;42.694;23.282;2023-06-22T04:49:05;72020.63;;;-143.21;78.56
6464;BME280;3265;42.694;23.282;2023-06-22T04:51:39;72016.66;;;-143.21;78.75
6464;BME280;3265;42.694;23.282;2023-06-22T04:54:07;72010.72;;;-143.21;78.30
6464;BME280;3265;42.694;23.282;2023-06-22T04:56:35;72022.59;;;-143.21;77.58
6464;BME280;3265;42.694;23.282;2023-06-22T04:59:02;72022.59;;;-143.21;78.11
6464;BME280;3265;42.694;23.282;2023-06-22T05:01:29;72016.66;;;-143.21;78.17
6464;BME280;3265;42.694;23.282;2023-06-22T05:03:57;72016.66;;;-143.21;77.74
6464;BME280;3265;42.694;23.282;2023-06-22T05:06:27;72020.63;;;-143.21;77.72
6464;BME280;3265;42.694;23.282;2023-06-22T05:08:55;72018.63;;;-143.21;77.83
6464;BME280;3265;42.694;23.282;2023-06-22T05:11:24;72016.66;;;-143.21;77.25
6464;BME280;3265;42.694;23.282;2023-06-22T05:13:51;72006.75;;;-143.21;77.17
6464;BME280;3265;42.694;23.282;2023-06-22T05:16:18;71996.81;;;-143.21;77.60
6464;BME280;3265;42.694;23.282;2023-06-22T05:18:53;71986.91;;;-143.21;77.67
6464;BME280;3265;42.694;23.282;2023-06-22T05:21:25;71984.94;;;-143.21;77.38
6464;BME280;3265;42.694;23.282;2023-06-22T05:23:53;71978.97;;;-143.21;76.57
6464;BME280;3265;42.694;23.282;2023-06-22T05:26:21;71967.09;;;-143.21;76.32
6464;BME280;3265;42.694;23.282;2023-06-22T05:28:49;71963.13;;;-143.21;76.69
6464;BME280;3265;42.694;23.282;2023-06-22T05:31:16;71959.16;;;-143.21;76.26
6464;BME280;3265;42.694;23.282;2023-06-22T05:33:45;71963.13;;;-143.21;76.19
6464;BME280;3265;42.694;23.282;2023-06-22T05:36:13;71945.28;;;-143.21;75.80
6464;BME280;3265;42.694;23.282;2023-06-22T05:38:40;71947.25;;;-143.21;76.09
6464;BME280;3265;42.694;23.282;2023-06-22T05:41:08;71943.28;;;-143.21;75.07
6464;BME280;3265;42.694;23.282;2023-06-22T05:43:35;71937.34;;;-143.21;75.11
6464;BME280;3265;42.694;23.282;2023-06-22T05:46:03;71935.34;;;-143.21;75.35
6464;BME280;3265;42.694;23.282;2023-06-22T05:48:30;71927.44;;;-143.21;75.52
6464;BME280;3265;42.694;23.282;2023-06-22T05:50:57;71931.38;;;-143.21;75.75
6464;BME280;3265;42.694;23.282;2023-06-22T05:53:23;71915.53;;;-143.21;74.96
6464;BME280;3265;42.694;23.282;2023-06-22T05:55:50;71913.53;;;-143.21;74.61
6464;BME280;3265;42.694;23.282;2023-06-22T05:58:18;71921.47;;;-143.21;74.43
6464;BME280;3265;42.694;23.282;2023-06-22T06:00:45;71905.63;;;-143.21;74.96
6464;BME280;3265;42.694;23.282;2023-06-22T06:03:13;71895.69;;;-143.21;74.89
6464;BME280;3265;42.694;23.282;2023-06-22T06:05:43;71887.78;;;-143.21;73.70
6464;BME280;3265;42.694;23.282;2023-06-22T06:08:10;71875.88;;;-143.21;73.25
6464;BME280;3265;42.694;23.282;2023-06-22T06:10:37;71863.97;;;-143.21;72.86
6464;BME280;3265;42.694;23.282;2023-06-22T06:13:04;71846.13;;;-143.21;72.44
6464;BME280;3265;42.694;23.282;2023-06-22T06:15:33;71832.25;;;-143.21;71.90
6464;BME280;3265;42.694;23.282;2023-06-22T06:18:00;71824.31;;;-143.21;70.81
6464;BME280;3265;42.694;23.282;2023-06-22T06:20:29;71812.41;;;-143.21;70.65
6464;BME280;3265;42.694;23.282;2023-06-22T06:22:56;71818.38;;;-143.21;70.86
6464;BME280;3265;42.694;23.282;2023-06-22T06:25:23;71810.44;;;-143.21;70.61
6464;BME280;3265;42.694;23.282;2023-06-22T06:27:51;71798.53;;;-143.21;70.16
6464;BME280;3265;42.694;23.282;2023-06-22T06:30:20;71794.56;;;-143.21;69.78
6464;BME280;3265;42.694;23.282;2023-06-22T06:32:49;71780.69;;;-143.21;68.63
6464;BME280;3265;42.694;23.282;2023-06-22T06:35:16;71762.84;;;-143.21;68.53
6464;BME280;3265;42.694;23.282;2023-06-22T06:37:45;71748.97;;;-143.21;67.56
6464;BME280;3265;42.694;23.282;2023-06-22T06:40:14;71737.06;;;-143.21;67.05
6464;BME280;3265;42.694;23.282;2023-06-22T06:42:42;71717.25;;;-143.21;66.82
6464;BME280;3265;42.694;23.282;2023-06-22T06:45:11;71703.34;;;-143.21;66.76
6464;BME280;3265;42.694;23.282;2023-06-22T06:47:38;71693.44;;;-143.21;67.21
6464;BME280;3265;42.694;23.282;2023-06-22T06:50:07;71669.66;;;-143.21;67.80
6464;BME280;3265;42.694;23.282;2023-06-22T06:52:35;71645.88;;;-143.21;67.16
6464;BME280;3265;42.694;23.282;2023-06-22T06:55:02;71626.03;;;-143.21;66.72
6464;BME280;3265;42.694;23.282;2023-06-22T06:57:30;71604.22;;;-143.21;66.37
6464;BME280;3265;42.694;23.282;2023-06-22T06:59:57;71584.41;;;-143.21;66.04
6464;BME280;3265;42.694;23.282;2023-06-22T07:02:25;71560.59;;;-143.21;65.41
6464;BME280;3265;42.694;23.282;2023-06-22T07:04:53;71540.78;;;-143.21;63.60
6464;BME280;3265;42.694;23.282;2023-06-22T07:07:22;71516.97;;;-143.21;63.04
6464;BME280;3265;42.694;23.282;2023-06-22T07:09:49;71503.09;;;-143.21;62.57
6464;BME280;3265;42.694;23.282;2023-06-22T07:12:15;71489.22;;;-143.21;62.30
6464;BME280;3265;42.694;23.282;2023-06-22T07:14:42;71481.28;;;-143.21;62.41
6464;BME280;3265;42.694;23.282;2023-06-22T07:17:10;71475.34;;;-143.21;62.67
6464;BME280;3265;42.694;23.282;2023-06-22T07:19:37;71457.50;;;-143.21;62.67
6464;BME280;3265;42.694;23.282;2023-06-22T07:22:04;71447.59;;;-143.21;62.59
6464;BME280;3265;42.694;23.282;2023-06-22T07:24:32;71443.63;;;-143.21;62.86
6464;BME280;3265;42.694;23.282;2023-06-22T07:26:59;71431.72;;;-143.21;62.91
6464;BME280;3265;42.694;23.282;2023-06-22T07:29:27;71433.72;;;-143.21;63.12
6464;BME280;3265;42.694;23.282;2023-06-22T07:31:54;71421.81;;;-143.21;63.17
6464;BME280;3265;42.694;23.282;2023-06-22T07:34:21;71413.88;;;-143.21;63.04
6464;BME280;3265;42.694;23.282;2023-06-22T07:36:48;71409.91;;;-143.21;62.70
6464;BME280;3265;42.694;23.282;2023-06-22T07:39:15;71400.00;;;-143.21;61.68
6464;BME280;3265;42.694;23.282;2023-06-22T07:41:43;71403.97;;;-143.21;61.97
6464;BME280;3265;42.694;23.282;2023-06-22T07:44:10;71403.97;;;-143.21;62.33
6464;BME280;3265;42.694;23.282;2023-06-22T07:46:37;71392.06;;;-143.21;62.26
6464;BME280;3265;42.694;23.282;2023-06-22T07:49:04;71392.06;;;-143.21;61.69
6464;BME280;3265;42.694;23.282;2023-06-22T07:51:31;71386.13;;;-143.21;61.65
6464;BME280;3265;42.694;23.282;2023-06-22T07:53:57;71382.16;;;-143.21;61.85
6464;BME280;3265;42.694;23.282;2023-06-22T07:56:24;71378.19;;;-143.21;62.83
6464;BME280;3265;42.694;23.282;2023-06-22T07:58:52;71362.34;;;-143.21;62.30
6464;BME280;3265;42.694;23.282;2023-06-22T08:01:20;71362.34;;;-143.21;61.49
6464;BME280;3265;42.694;23.282;2023-06-22T08:03:47;71356.38;;;-143.21;61.80
6464;BME280;3265;42.694;23.282;2023-06-22T08:06:14;71326.66;;;-143.21;60.74
6464;BME280;3265;42.694;23.282;2023-06-22T08:08:41;71328.63;;;-143.21;61.57
6464;BME280;3265;42.694;23.282;2023-06-22T08:11:09;71308.81;;;-143.21;62.63
6464;BME280;3265;42.694;23.282;2023-06-22T08:13:35;71292.94;;;-143.21;60.22
6464;BME280;3265;42.694;23.282;2023-06-22T08:16:04;71294.94;;;-143.21;60.89
6464;BME280;3265;42.694;23.282;2023-06-22T08:18:32;71300.88;;;-143.21;60.43
6464;BME280;3265;42.694;23.282;2023-06-22T08:20:59;71308.81;;;-143.21;60.54
6464;BME280;3265;42.694;23.282;2023-06-22T08:23:26;71304.84;;;-143.21;61.20
6464;BME280;3265;42.694;23.282;2023-06-22T08:25:53;71304.84;;;-143.21;60.88
6464;BME280;3265;42.694;23.282;2023-06-22T08:28:20;71294.94;;;-143.21;61.16
6464;BME280;3265;42.694;23.282;2023-06-22T08:30:47;71296.91;;;-143.21;61.39
6464;BME280;3265;42.694;23.282;2023-06-22T08:33:15;71290.97;;;-143.21;61.73
6464;BME280;3265;42.694;23.282;2023-06-22T08:35:43;71302.84;;;-143.21;61.40
6464;BME280;3265;42.694;23.282;2023-06-22T08:38:10;71296.91;;;-143.21;61.44
6464;BME280;3265;42.694;23.282;2023-06-22T08:40:41;71290.97;;;-143.21;61.35
6464;BME280;3265;42.694;23.282;2023-06-22T08:43:07;71288.97;;;-143.21;60.88
6464;BME280;3265;42.694;23.282;2023-06-22T08:45:35;71283.03;;;-143.21;60.67
6464;BME280;3265;42.694;23.282;2023-06-22T08:48:03;71267.19;;;-143.21;60.98
6464;BME280;3265;42.694;23.282;2023-06-22T08:50:32;71255.28;;;-143.21;60.81
6464;BME280;3265;42.694;23.282;2023-06-22T08:52:59;71245.38;;;-143.21;60.55
6464;BME280;3265;42.694;23.282;2023-06-22T08:55:26;71235.44;;;-143.21;60.47
6464;BME280;3265;42.694;23.282;2023-06-22T08:57:53;71215.63;;;-143.21;56.81
6464;BME280;3265;42.694;23.282;2023-06-22T09:00:20;71209.69;;;-143.21;56.59
6464;BME280;3265;42.694;23.282;2023-06-22T09:02:48;71205.72;;;-143.21;57.31
6464;BME280;3265;42.694;23.282;2023-06-22T09:05:17;71195.81;;;-143.21;57.02
6464;BME280;3265;42.694;23.282;2023-06-22T09:07:45;71189.84;;;-143.21;57.77
6464;BME280;3265;42.694;23.282;2023-06-22T09:10:12;71181.94;;;-143.21;58.55
6464;BME280;3265;42.694;23.282;2023-06-22T09:12:39;71181.94;;;-143.21;57.14
6464;BME280;3265;42.694;23.282;2023-06-22T09:15:07;71175.97;;;-143.21;55.43
6464;BME280;3265;42.694;23.282;2023-06-22T09:17:34;71162.09;;;-143.21;55.50
6464;BME280;3265;42.694;23.282;2023-06-22T09:20:06;71154.16;;;-143.21;55.69
6464;BME280;3265;42.694;23.282;2023-06-22T09:22:36;71150.22;;;-143.21;56.85
6464;BME280;3265;42.694;23.282;2023-06-22T09:25:05;71136.31;;;-143.21;56.45
6464;BME280;3265;42.694;23.282;2023-06-22T09:27:32;71126.41;;;-143.21;56.10
6464;BME280;3265;42.694;23.282;2023-06-22T09:30:03;71120.47;;;-143.21;55.22
6464;BME280;3265;42.694;23.282;2023-06-22T09:32:33;71112.53;;;-143.21;54.67
6464;BME280;3265;42.694;23.282;2023-06-22T09:35:03;71110.56;;;-143.21;55.48
6464;BME280;3265;42.694;23.282;2023-06-22T09:37:31;71102.63;;;-143.21;54.17
6464;BME280;3265;42.694;23.282;2023-06-22T09:39:57;71084.78;;;-143.21;53.33
6464;BME280;3265;42.694;23.282;2023-06-22T09:42:26;71082.81;;;-143.21;52.96
6464;BME280;3265;42.694;23.282;2023-06-22T09:44:52;71070.91;;;-143.21;53.57
6464;BME280;3265;42.694;23.282;2023-06-22T09:47:19;71057.03;;;-143.21;53.70
6464;BME280;3265;42.694;23.282;2023-06-22T09:49:46;71039.19;;;-143.21;54.22
6464;BME280;3265;42.694;23.282;2023-06-22T09:52:13;71023.34;;;-143.21;52.67
6464;BME280;3265;42.694;23.282;2023-06-22T09:54:40;71005.50;;;-143.21;51.83
6464;BME280;3265;42.694;23.282;2023-06-22T09:57:06;71003.50;;;-143.21;52.04
6464;BME280;3265;42.694;23.282;2023-06-22T09:59:35;71001.53;;;-143.21;52.43
6464;BME280;3265;42.694;23.282;2023-06-22T10:02:01;70999.53;;;-143.21;53.07
6464;BME280;3265;42.694;23.282;2023-06-22T10:04:28;70987.66;;;-143.21;51.40
6464;BME280;3265;42.694;23.282;2023-06-22T10:06:55;70975.75;;;-143.21;51.85
6464;BME280;3265;42.694;23.282;2023-06-22T10:09:22;70965.84;;;-143.21;52.08
6464;BME280;3265;42.694;23.282;2023-06-22T10:11:49;70949.97;;;-143.21;52.57
6464;BME280;3265;42.694;23.282;2023-06-22T10:14:16;70930.16;;;-143.21;52.43
6464;BME280;3265;42.694;23.282;2023-06-22T10:16:44;70910.34;;;-143.21;50.56
6464;BME280;3265;42.694;23.282;2023-06-22T10:19:11;70892.50;;;-143.21;49.45
6464;BME280;3265;42.694;23.282;2023-06-22T10:21:38;70892.50;;;-143.21;49.47
6464;BME280;3265;42.694;23.282;2023-06-22T10:24:05;70878.63;;;-143.21;49.00
6464;BME280;3265;42.694;23.282;2023-06-22T10:26:32;70860.78;;;-143.21;48.92
6464;BME280;3265;42.694;23.282;2023-06-22T10:28:59;70856.81;;;-143.21;47.45
6464;BME280;3265;42.694;23.282;2023-06-22T10:31:26;70842.94;;;-143.21;47.42
6464;BME280;3265;42.694;23.282;2023-06-22T10:33:54;70829.06;;;-143.21;46.91
6464;BME280;3265;42.694;23.282;2023-06-22T10:36:21;70837.00;;;-143.21;47.22
6464;BME280;3265;42.694;23.282;2023-06-22T10:38:49;70813.19;;;-143.21;48.22
6464;BME280;3265;42.694;23.282;2023-06-22T10:41:15;70801.31;;;-143.21;46.82
6464;BME280;3265;42.694;23.282;2023-06-22T10:43:42;70773.56;;;-143.21;46.24
6464;BME280;3265;42.694;23.282;2023-06-22T10:46:09;70757.69;;;-143.21;46.04
6464;BME280;3265;42.694;23.282;2023-06-22T10:48:36;70731.94;;;-143.21;45.61
6464;BME280;3265;42.694;23.282;2023-06-22T10:51:05;70708.16;;;-143.21;45.56
6464;BME280;3265;42.694;23.282;2023-06-22T10:53:34;70690.31;;;-143.21;45.56
6464;BME280;3265;42.694;23.282;2023-06-22T10:56:01;70672.47;;;-143.21;44.35
6464;BME280;3265;42.694;23.282;2023-06-22T10:58:27;70650.66;;;-143.21;44.88
6464;BME280;3265;42.694;23.282;2023-06-22T11:00:54;70626.88;;;-143.21;44.32
6464;BME280;3265;42.694;23.282;2023-06-22T11:06:48;70601.09;;;-143.21;43.03
6464;BME280;3265;42.694;23.282;2023-06-22T11:09:14;70575.34;;;-143.21;43.17
6464;BME280;3265;42.694;23.282;2023-06-22T11:11:45;70575.34;;;-143.21;42.51
6464;BME280;3265;42.694;23.282;2023-06-22T11:14:16;70573.34;;;-143.21;42.66
6464;BME280;3265;42.694;23.282;2023-06-22T11:16:43;70549.56;;;-143.21;42.20
6464;BME280;3265;42.694;23.282;2023-06-22T11:19:10;70503.97;;;-143.21;42.51
6464;BME280;3265;42.694;23.282;2023-06-22T11:21:37;70478.22;;;-143.21;42.78
6464;BME280;3265;42.694;23.282;2023-06-22T11:24:08;70456.41;;;-143.21;41.62
6464;BME280;3265;42.694;23.282;2023-06-22T11:26:37;70472.25;;;-143.21;41.12
6464;BME280;3265;42.694;23.282;2023-06-22T11:29:10;70480.19;;;-143.21;41.64
6464;BME280;3265;42.694;23.282;2023-06-22T11:31:36;70480.19;;;-143.21;42.01
6464;BME280;3265;42.694;23.282;2023-06-22T11:34:04;70492.09;;;-143.21;41.70
6464;BME280;3265;42.694;23.282;2023-06-22T11:36:34;70523.81;;;-143.21;43.01
6464;BME280;3265;42.694;23.282;2023-06-22T11:39:01;70547.59;;;-143.21;42.87
6464;BME280;3265;42.694;23.282;2023-06-22T11:41:29;70561.47;;;-143.21;42.80
6464;BME280;3265;42.694;23.282;2023-06-22T11:43:56;70585.25;;;-143.21;42.89
6464;BME280;3265;42.694;23.282;2023-06-22T11:46:26;70601.09;;;-143.21;44.06
6464;BME280;3265;42.694;23.282;2023-06-22T11:48:54;70618.94;;;-143.21;46.19
6464;BME280;3265;42.694;23.282;2023-06-22T11:51:21;70648.69;;;-143.21;46.31
6464;BME280;3265;42.694;23.282;2023-06-22T11:53:50;70664.53;;;-143.21;48.60
6464;BME280;3265;42.694;23.282;2023-06-22T11:56:17;70704.19;;;-143.21;47.14
6464;BME280;3265;42.694;23.282;2023-06-22T11:58:48;70727.97;;;-143.21;49.00
6464;BME280;3265;42.694;23.282;2023-06-22T12:01:15;70731.94;;;-143.21;49.55
6464;BME280;3265;42.694;23.282;2023-06-22T12:03:42;70745.81;;;-143.21;47.58
6464;BME280;3265;42.694;23.282;2023-06-22T12:06:09;70773.56;;;-143.21;45.41
6464;BME280;3265;42.694;23.282;2023-06-22T12:08:36;70793.38;;;-143.21;44.31
6464;BME280;3265;42.694;23.282;2023-06-22T12:11:03;70813.19;;;-143.21;46.07
6464;BME280;3265;42.694;23.282;2023-06-22T12:13:30;70831.03;;;-143.21;46.54
6464;BME280;3265;42.694;23.282;2023-06-22T12:15:58;70838.97;;;-143.21;47.71
6464;BME280;3265;42.694;23.282;2023-06-22T12:18:26;70860.78;;;-143.21;48.07
6464;BME280;3265;42.694;23.282;2023-06-22T12:20:52;70876.63;;;-143.21;49.11
6464;BME280;3265;42.694;23.282;2023-06-22T12:23:19;70918.25;;;-143.21;52.78
6464;BME280;3265;42.694;23.282;2023-06-22T12:25:46;70969.81;;;-143.21;57.42
6464;BME280;3265;42.694;23.282;2023-06-22T12:28:13;71039.19;;;-143.21;60.37
6464;BME280;3265;42.694;23.282;2023-06-22T12:30:40;71116.50;;;-143.21;61.70
6464;BME280;3265;42.694;23.282;2023-06-22T12:33:08;71197.78;;;-143.21;63.85
6464;BME280;3265;42.694;23.282;2023-06-22T12:35:35;71279.06;;;-143.21;66.58
6464;BME280;3265;42.694;23.282;2023-06-22T12:38:02;71342.50;;;-143.21;67.24
6464;BME280;3265;42.694;23.282;2023-06-22T12:40:31;71366.31;;;-143.21;67.06
6464;BME280;3265;42.694;23.282;2023-06-22T12:42:58;71386.13;;;-143.21;65.42
6464;BME280;3265;42.694;23.282;2023-06-22T12:45:27;71392.06;;;-143.21;65.97
6464;BME280;3265;42.694;23.282;2023-06-22T12:47:58;71386.13;;;-143.21;63.92
6464;BME280;3265;42.694;23.282;2023-06-22T12:50:27;71392.06;;;-143.21;65.23
6464;BME280;3265;42.694;23.282;2023-06-22T12:52:54;71411.91;;;-143.21;66.08
6464;BME280;3265;42.694;23.282;2023-06-22T12:55:21;71415.88;;;-143.21;65.35
6464;BME280;3265;42.694;23.282;2023-06-22T12:57:48;71413.88;;;-143.21;65.96